Bhaktapur, Nepal
Current Conditions -  °F | °C
As of 6:50 PM on Sunday 23 Nov 2014 (Local Time) from VNKT Reporting Station
Few Clouds Few Clouds  
Wind Chill: 57°   Ceiling: Unl
Heat Index: 57°   Visibility: 4mi
Dew Point: 52°   Wind: 3mph
Humidity: 82%   Direction: 200°SSW
Pressure: 30.03"   Gusts: NA
Location:  27.67°N, 85.43°E
Report Text: VNKT 231350Z 20003KT 6000 FEW025 14/11 Q1017 NOSIG
Loading
Personal Weather Stations






























Interactive Weather Map New forecast layout! Learn more

10-Day Weather Forecast

Advertisements
Track Severe Weather on mobile